Castle Valley, Utah
Current Conditions -  °F | °C
As of 7:53 PM on Tuesday 21 Oct 2014 (Local Time) from KCNY Reporting Station
Clear Clear  
Wind Chill: 18°   Ceiling: Unl
Heat Index: 18°   Visibility: 10mi
Dew Point:   Wind: 10mph
Humidity: 29%   Direction: 220°SW
Pressure: 29.89"   Gusts: NA
Location:  38.6903°N, 109.256°W
Report Text: KCNY 220153Z AUTO 22009KT 10SM CLR 18/00 A2989 RMK AO2 LTG DSNT NW SLP082 T01830000
Loading
Personal Weather Stations






























Interactive Weather Map
Tropical Storm Tracking
New forecast layout! Learn more

10-Day Weather Forecast

Advertisements
Track Severe Weather on mobile